sensor_id;sensor_type;location;lat;lon;timestamp;temperature;humidity
802;DHT22;383;48.766;9.270;2023-06-01T00:01:45;15.60;71.50
802;DHT22;383;48.766;9.270;2023-06-01T00:04:15;15.60;71.50
802;DHT22;383;48.766;9.270;2023-06-01T00:06:42;15.50;71.60
802;DHT22;383;48.766;9.270;2023-06-01T00:09:11;15.60;71.70
802;DHT22;383;48.766;9.270;2023-06-01T00:11:39;15.60;71.70
802;DHT22;383;48.766;9.270;2023-06-01T00:14:06;15.60;71.50
802;DHT22;383;48.766;9.270;2023-06-01T00:16:33;15.60;71.30
802;DHT22;383;48.766;9.270;2023-06-01T00:19:00;15.60;71.30
802;DHT22;383;48.766;9.270;2023-06-01T00:21:27;15.50;71.70
802;DHT22;383;48.766;9.270;2023-06-01T00:23:54;15.40;71.90
802;DHT22;383;48.766;9.270;2023-06-01T00:26:21;15.40;72.30
802;DHT22;383;48.766;9.270;2023-06-01T00:28:49;15.30;72.60
802;DHT22;383;48.766;9.270;2023-06-01T00:31:15;15.20;73.30
802;DHT22;383;48.766;9.270;2023-06-01T00:33:42;15.10;73.60
802;DHT22;383;48.766;9.270;2023-06-01T00:36:09;15.10;73.60
802;DHT22;383;48.766;9.270;2023-06-01T00:38:35;15.10;73.60
802;DHT22;383;48.766;9.270;2023-06-01T00:41:02;15.10;73.80
802;DHT22;383;48.766;9.270;2023-06-01T00:43:29;15.10;73.60
802;DHT22;383;48.766;9.270;2023-06-01T00:45:57;15.10;73.40
802;DHT22;383;48.766;9.270;2023-06-01T00:48:24;15.10;73.70
802;DHT22;383;48.766;9.270;2023-06-01T00:50:51;15.10;73.70
802;DHT22;383;48.766;9.270;2023-06-01T00:53:19;15.10;73.80
802;DHT22;383;48.766;9.270;2023-06-01T00:55:47;15.10;73.70
802;DHT22;383;48.766;9.270;2023-06-01T00:58:14;15.10;73.70
802;DHT22;383;48.766;9.270;2023-06-01T01:00:41;15.00;74.00
802;DHT22;383;48.766;9.270;2023-06-01T01:03:10;15.00;74.10
802;DHT22;383;48.766;9.270;2023-06-01T01:05:39;14.90;74.40
802;DHT22;383;48.766;9.270;2023-06-01T01:08:12;14.90;74.40
802;DHT22;383;48.766;9.270;2023-06-01T01:10:42;14.90;74.50
802;DHT22;383;48.766;9.270;2023-06-01T01:13:14;14.90;74.40
802;DHT22;383;48.766;9.270;2023-06-01T01:15:50;14.80;74.80
802;DHT22;383;48.766;9.270;2023-06-01T01:18:23;14.80;75.00
802;DHT22;383;48.766;9.270;2023-06-01T01:20:57;14.80;75.30
802;DHT22;383;48.766;9.270;2023-06-01T01:23:48;14.70;75.60
802;DHT22;383;48.766;9.270;2023-06-01T01:26:30;14.70;75.80
802;DHT22;383;48.766;9.270;2023-06-01T01:29:06;14.60;76.00
802;DHT22;383;48.766;9.270;2023-06-01T01:31:35;14.50;76.10
802;DHT22;383;48.766;9.270;2023-06-01T01:34:03;14.50;76.20
802;DHT22;383;48.766;9.270;2023-06-01T01:36:31;14.50;76.20
802;DHT22;383;48.766;9.270;2023-06-01T01:38:58;14.50;76.30
802;DHT22;383;48.766;9.270;2023-06-01T01:41:25;14.40;76.60
802;DHT22;383;48.766;9.270;2023-06-01T01:43:52;14.40;76.50
802;DHT22;383;48.766;9.270;2023-06-01T01:46:23;14.40;76.70
802;DHT22;383;48.766;9.270;2023-06-01T01:48:57;14.40;76.60
802;DHT22;383;48.766;9.270;2023-06-01T01:51:29;14.40;76.60
802;DHT22;383;48.766;9.270;2023-06-01T01:53:59;14.40;76.60
802;DHT22;383;48.766;9.270;2023-06-01T01:56:27;14.30;76.70
802;DHT22;383;48.766;9.270;2023-06-01T01:58:54;14.30;76.60
802;DHT22;383;48.766;9.270;2023-06-01T02:01:23;14.30;76.70
802;DHT22;383;48.766;9.270;2023-06-01T02:03:58;14.40;76.30
802;DHT22;383;48.766;9.270;2023-06-01T02:06:25;14.40;76.50
802;DHT22;383;48.766;9.270;2023-06-01T02:08:52;14.30;76.60
802;DHT22;383;48.766;9.270;2023-06-01T02:11:19;14.30;76.70
802;DHT22;383;48.766;9.270;2023-06-01T02:13:46;14.30;77.00
802;DHT22;383;48.766;9.270;2023-06-01T02:16:12;14.20;77.30
802;DHT22;383;48.766;9.270;2023-06-01T02:18:40;14.20;77.30
802;DHT22;383;48.766;9.270;2023-06-01T02:21:11;14.20;77.40
802;DHT22;383;48.766;9.270;2023-06-01T02:23:38;14.10;77.40
802;DHT22;383;48.766;9.270;2023-06-01T02:26:05;14.10;77.50
802;DHT22;383;48.766;9.270;2023-06-01T02:28:31;14.00;77.70
802;DHT22;383;48.766;9.270;2023-06-01T02:30:58;14.00;77.80
802;DHT22;383;48.766;9.270;2023-06-01T02:33:25;14.00;78.10
802;DHT22;383;48.766;9.270;2023-06-01T02:35:53;13.90;78.20
802;DHT22;383;48.766;9.270;2023-06-01T02:38:20;13.90;78.50
802;DHT22;383;48.766;9.270;2023-06-01T02:40:47;13.90;77.80
802;DHT22;383;48.766;9.270;2023-06-01T02:43:13;13.90;78.30
802;DHT22;383;48.766;9.270;2023-06-01T02:45:40;13.80;78.90
802;DHT22;383;48.766;9.270;2023-06-01T02:48:07;13.80;78.90
802;DHT22;383;48.766;9.270;2023-06-01T02:50:33;13.80;78.70
802;DHT22;383;48.766;9.270;2023-06-01T02:53:01;13.80;78.90
802;DHT22;383;48.766;9.270;2023-06-01T02:55:30;13.70;79.10
802;DHT22;383;48.766;9.270;2023-06-01T02:57:56;13.70;79.50
802;DHT22;383;48.766;9.270;2023-06-01T03:00:23;13.60;79.70
802;DHT22;383;48.766;9.270;2023-06-01T03:02:50;13.60;79.50
802;DHT22;383;48.766;9.270;2023-06-01T03:05:18;13.70;79.30
802;DHT22;383;48.766;9.270;2023-06-01T03:07:46;13.60;79.50
802;DHT22;383;48.766;9.270;2023-06-01T03:10:15;13.50;80.00
802;DHT22;383;48.766;9.270;2023-06-01T03:12:41;13.40;80.40
802;DHT22;383;48.766;9.270;2023-06-01T03:15:09;13.50;80.40
802;DHT22;383;48.766;9.270;2023-06-01T03:17:36;13.50;80.30
802;DHT22;383;48.766;9.270;2023-06-01T03:20:03;13.50;80.00
802;DHT22;383;48.766;9.270;2023-06-01T03:22:40;13.50;80.20
802;DHT22;383;48.766;9.270;2023-06-01T03:25:07;13.50;80.30
802;DHT22;383;48.766;9.270;2023-06-01T03:27:35;13.50;80.30
802;DHT22;383;48.766;9.270;2023-06-01T03:30:01;13.50;80.40
802;DHT22;383;48.766;9.270;2023-06-01T03:32:29;13.50;80.30
802;DHT22;383;48.766;9.270;2023-06-01T03:34:56;13.50;80.40
802;DHT22;383;48.766;9.270;2023-06-01T03:37:22;13.40;80.60
802;DHT22;383;48.766;9.270;2023-06-01T03:39:49;13.40;80.40
802;DHT22;383;48.766;9.270;2023-06-01T03:42:16;13.40;80.60
802;DHT22;383;48.766;9.270;2023-06-01T03:44:44;13.40;80.60
802;DHT22;383;48.766;9.270;2023-06-01T03:47:10;13.40;80.70
802;DHT22;383;48.766;9.270;2023-06-01T03:49:39;13.30;81.00
802;DHT22;383;48.766;9.270;2023-06-01T03:52:06;13.40;80.80
802;DHT22;383;48.766;9.270;2023-06-01T03:54:33;13.40;80.70
802;DHT22;383;48.766;9.270;2023-06-01T03:57:00;13.40;80.80
802;DHT22;383;48.766;9.270;2023-06-01T03:59:27;13.40;81.10
802;DHT22;383;48.766;9.270;2023-06-01T04:01:55;13.40;81.20
802;DHT22;383;48.766;9.270;2023-06-01T04:04:24;13.40;81.20
802;DHT22;383;48.766;9.270;2023-06-01T04:06:52;13.40;81.20
802;DHT22;383;48.766;9.270;2023-06-01T04:09:19;13.40;81.20
802;DHT22;383;48.766;9.270;2023-06-01T04:11:46;13.40;81.50
802;DHT22;383;48.766;9.270;2023-06-01T04:14:13;13.40;81.50
802;DHT22;383;48.766;9.270;2023-06-01T04:16:40;13.50;81.20
802;DHT22;383;48.766;9.270;2023-06-01T04:19:11;13.50;81.20
802;DHT22;383;48.766;9.270;2023-06-01T04:21:37;13.40;81.90
802;DHT22;383;48.766;9.270;2023-06-01T04:24:04;13.50;82.00
802;DHT22;383;48.766;9.270;2023-06-01T04:26:31;13.50;81.90
802;DHT22;383;48.766;9.270;2023-06-01T04:28:58;13.40;82.20
802;DHT22;383;48.766;9.270;2023-06-01T04:31:25;13.40;82.70
802;DHT22;383;48.766;9.270;2023-06-01T04:33:51;13.40;82.40
802;DHT22;383;48.766;9.270;2023-06-01T04:36:20;13.50;82.20
802;DHT22;383;48.766;9.270;2023-06-01T04:38:47;13.50;82.60
802;DHT22;383;48.766;9.270;2023-06-01T04:41:16;13.50;82.40
802;DHT22;383;48.766;9.270;2023-06-01T04:43:45;13.60;82.30
802;DHT22;383;48.766;9.270;2023-06-01T04:46:17;13.60;82.30
802;DHT22;383;48.766;9.270;2023-06-01T04:48:45;13.70;82.60
802;DHT22;383;48.766;9.270;2023-06-01T04:51:12;13.70;82.60
802;DHT22;383;48.766;9.270;2023-06-01T04:53:43;13.80;82.60
802;DHT22;383;48.766;9.270;2023-06-01T04:56:10;13.80;82.60
802;DHT22;383;48.766;9.270;2023-06-01T04:58:37;13.80;82.70
802;DHT22;383;48.766;9.270;2023-06-01T05:01:03;13.80;83.20
802;DHT22;383;48.766;9.270;2023-06-01T05:03:31;13.90;83.40
802;DHT22;383;48.766;9.270;2023-06-01T05:05:58;13.90;83.20
802;DHT22;383;48.766;9.270;2023-06-01T05:08:25;14.00;83.10
802;DHT22;383;48.766;9.270;2023-06-01T05:10:53;14.10;83.10
802;DHT22;383;48.766;9.270;2023-06-01T05:13:19;14.10;83.00
802;DHT22;383;48.766;9.270;2023-06-01T05:15:47;14.30;82.60
802;DHT22;383;48.766;9.270;2023-06-01T05:18:17;14.30;82.40
802;DHT22;383;48.766;9.270;2023-06-01T05:20:44;14.40;82.20
802;DHT22;383;48.766;9.270;2023-06-01T05:23:11;14.40;82.60
802;DHT22;383;48.766;9.270;2023-06-01T05:25:38;14.50;82.40
802;DHT22;383;48.766;9.270;2023-06-01T05:28:06;14.70;82.40
802;DHT22;383;48.766;9.270;2023-06-01T05:30:33;14.80;82.40
802;DHT22;383;48.766;9.270;2023-06-01T05:33:00;14.90;82.40
802;DHT22;383;48.766;9.270;2023-06-01T05:35:28;15.10;81.80
802;DHT22;383;48.766;9.270;2023-06-01T05:37:55;15.30;80.70
802;DHT22;383;48.766;9.270;2023-06-01T05:40:22;15.50;79.80
802;DHT22;383;48.766;9.270;2023-06-01T05:42:48;15.60;78.70
802;DHT22;383;48.766;9.270;2023-06-01T05:45:17;15.80;78.50
802;DHT22;383;48.766;9.270;2023-06-01T05:47:44;15.90;77.00
802;DHT22;383;48.766;9.270;2023-06-01T05:50:10;16.00;77.00
802;DHT22;383;48.766;9.270;2023-06-01T05:52:37;16.10;76.60
802;DHT22;383;48.766;9.270;2023-06-01T05:55:05;16.10;76.50
802;DHT22;383;48.766;9.270;2023-06-01T05:57:32;16.10;75.80
802;DHT22;383;48.766;9.270;2023-06-01T05:59:58;16.10;75.30
802;DHT22;383;48.766;9.270;2023-06-01T06:02:26;16.10;75.30
802;DHT22;383;48.766;9.270;2023-06-01T06:04:54;16.20;75.40
802;DHT22;383;48.766;9.270;2023-06-01T06:07:21;16.30;74.80
802;DHT22;383;48.766;9.270;2023-06-01T06:09:48;16.40;74.90
802;DHT22;383;48.766;9.270;2023-06-01T06:12:15;16.50;74.50
802;DHT22;383;48.766;9.270;2023-06-01T06:14:42;16.60;74.60
802;DHT22;383;48.766;9.270;2023-06-01T06:17:08;16.80;70.70
802;DHT22;383;48.766;9.270;2023-06-01T06:19:36;17.00;69.70
802;DHT22;383;48.766;9.270;2023-06-01T06:22:04;17.20;68.90
802;DHT22;383;48.766;9.270;2023-06-01T06:24:30;17.40;67.50
802;DHT22;383;48.766;9.270;2023-06-01T06:26:57;17.50;67.80
802;DHT22;383;48.766;9.270;2023-06-01T06:29:24;17.60;67.20
802;DHT22;383;48.766;9.270;2023-06-01T06:31:51;17.80;66.30
802;DHT22;383;48.766;9.270;2023-06-01T06:34:17;17.90;66.40
802;DHT22;383;48.766;9.270;2023-06-01T06:36:45;18.10;65.20
802;DHT22;383;48.766;9.270;2023-06-01T06:39:12;18.20;64.70
802;DHT22;383;48.766;9.270;2023-06-01T06:41:40;18.40;64.90
802;DHT22;383;48.766;9.270;2023-06-01T06:44:07;18.50;63.10
802;DHT22;383;48.766;9.270;2023-06-01T06:46:34;18.50;63.50
802;DHT22;383;48.766;9.270;2023-06-01T06:49:00;18.60;63.80
802;DHT22;383;48.766;9.270;2023-06-01T06:51:27;18.70;63.90
802;DHT22;383;48.766;9.270;2023-06-01T06:53:55;18.90;62.90
802;DHT22;383;48.766;9.270;2023-06-01T06:56:23;19.00;63.80
802;DHT22;383;48.766;9.270;2023-06-01T06:58:50;19.10;62.20
802;DHT22;383;48.766;9.270;2023-06-01T07:01:17;19.20;62.20
802;DHT22;383;48.766;9.270;2023-06-01T07:03:44;19.30;62.10
802;DHT22;383;48.766;9.270;2023-06-01T07:06:10;19.40;61.00
802;DHT22;383;48.766;9.270;2023-06-01T07:08:37;19.50;60.80
802;DHT22;383;48.766;9.270;2023-06-01T07:11:05;19.50;61.10
802;DHT22;383;48.766;9.270;2023-06-01T07:13:32;19.60;60.40
802;DHT22;383;48.766;9.270;2023-06-01T07:15:59;19.70;59.60
802;DHT22;383;48.766;9.270;2023-06-01T07:18:25;19.70;59.80
802;DHT22;383;48.766;9.270;2023-06-01T07:20:52;19.90;61.30
802;DHT22;383;48.766;9.270;2023-06-01T07:23:19;20.10;59.50
802;DHT22;383;48.766;9.270;2023-06-01T07:25:45;20.20;58.80
802;DHT22;383;48.766;9.270;2023-06-01T07:28:13;20.40;59.10
802;DHT22;383;48.766;9.270;2023-06-01T07:30:41;20.60;57.80
802;DHT22;383;48.766;9.270;2023-06-01T07:33:07;20.70;56.90
802;DHT22;383;48.766;9.270;2023-06-01T07:35:35;20.90;56.50
802;DHT22;383;48.766;9.270;2023-06-01T07:38:01;21.00;56.20
802;DHT22;383;48.766;9.270;2023-06-01T07:40:29;21.10;56.50
802;DHT22;383;48.766;9.270;2023-06-01T07:42:56;21.30;55.50
802;DHT22;383;48.766;9.270;2023-06-01T07:45:24;21.30;56.00
802;DHT22;383;48.766;9.270;2023-06-01T07:47:51;21.40;54.50
802;DHT22;383;48.766;9.270;2023-06-01T07:50:19;21.60;55.20
802;DHT22;383;48.766;9.270;2023-06-01T07:52:45;21.70;54.40
802;DHT22;383;48.766;9.270;2023-06-01T07:55:12;21.70;54.00
802;DHT22;383;48.766;9.270;2023-06-01T07:57:40;21.80;53.60
802;DHT22;383;48.766;9.270;2023-06-01T08:00:08;22.00;54.40
802;DHT22;383;48.766;9.270;2023-06-01T08:02:39;22.10;52.60
802;DHT22;383;48.766;9.270;2023-06-01T08:05:07;22.20;52.10
802;DHT22;383;48.766;9.270;2023-06-01T08:07:35;22.30;52.30
802;DHT22;383;48.766;9.270;2023-06-01T08:10:04;22.40;51.50
802;DHT22;383;48.766;9.270;2023-06-01T08:12:30;22.50;53.50
802;DHT22;383;48.766;9.270;2023-06-01T08:14:58;22.70;51.40
802;DHT22;383;48.766;9.270;2023-06-01T08:17:25;22.80;51.40
802;DHT22;383;48.766;9.270;2023-06-01T08:19:53;22.90;50.30
802;DHT22;383;48.766;9.270;2023-06-01T08:22:20;22.90;51.60
802;DHT22;383;48.766;9.270;2023-06-01T08:24:47;23.00;51.00
802;DHT22;383;48.766;9.270;2023-06-01T08:27:18;23.10;50.80
802;DHT22;383;48.766;9.270;2023-06-01T08:29:46;23.20;49.20
802;DHT22;383;48.766;9.270;2023-06-01T08:32:14;23.10;49.80
802;DHT22;383;48.766;9.270;2023-06-01T08:34:43;23.20;50.70
802;DHT22;383;48.766;9.270;2023-06-01T08:37:11;23.40;51.50
802;DHT22;383;48.766;9.270;2023-06-01T08:39:39;23.60;51.40
802;DHT22;383;48.766;9.270;2023-06-01T08:42:08;23.80;50.20
802;DHT22;383;48.766;9.270;2023-06-01T08:44:38;23.90;50.00
802;DHT22;383;48.766;9.270;2023-06-01T08:47:05;24.10;49.00
802;DHT22;383;48.766;9.270;2023-06-01T08:49:33;24.20;49.80
802;DHT22;383;48.766;9.270;2023-06-01T08:52:03;24.30;48.70
802;DHT22;383;48.766;9.270;2023-06-01T08:54:32;24.30;48.90
802;DHT22;383;48.766;9.270;2023-06-01T08:56:59;24.20;48.70
802;DHT22;383;48.766;9.270;2023-06-01T08:59:29;24.30;49.40
802;DHT22;383;48.766;9.270;2023-06-01T09:01:56;24.50;48.70
802;DHT22;383;48.766;9.270;2023-06-01T09:04:24;24.70;49.20
802;DHT22;383;48.766;9.270;2023-06-01T09:06:51;24.80;48.40
802;DHT22;383;48.766;9.270;2023-06-01T09:09:18;25.00;48.30
802;DHT22;383;48.766;9.270;2023-06-01T09:11:46;25.00;49.50
802;DHT22;383;48.766;9.270;2023-06-01T09:14:23;25.20;47.40
802;DHT22;383;48.766;9.270;2023-06-01T09:16:51;25.30;46.90
802;DHT22;383;48.766;9.270;2023-06-01T09:19:18;25.40;48.70
802;DHT22;383;48.766;9.270;2023-06-01T09:21:56;25.50;48.90
802;DHT22;383;48.766;9.270;2023-06-01T09:24:23;25.70;46.80
802;DHT22;383;48.766;9.270;2023-06-01T09:26:59;25.60;47.40
802;DHT22;383;48.766;9.270;2023-06-01T09:29:26;25.70;47.20
802;DHT22;383;48.766;9.270;2023-06-01T09:31:53;25.90;47.10
802;DHT22;383;48.766;9.270;2023-06-01T09:34:20;26.00;45.90
802;DHT22;383;48.766;9.270;2023-06-01T09:36:49;26.00;46.20
802;DHT22;383;48.766;9.270;2023-06-01T09:39:19;25.90;46.90
802;DHT22;383;48.766;9.270;2023-06-01T09:41:52;25.90;46.40
802;DHT22;383;48.766;9.270;2023-06-01T09:44:26;26.10;46.80
802;DHT22;383;48.766;9.270;2023-06-01T09:46:56;26.30;45.80
802;DHT22;383;48.766;9.270;2023-06-01T09:49:25;26.40;45.90
802;DHT22;383;48.766;9.270;2023-06-01T09:51:53;26.30;45.20
802;DHT22;383;48.766;9.270;2023-06-01T09:54:35;26.30;46.10
802;DHT22;383;48.766;9.270;2023-06-01T09:57:05;26.50;45.70
802;DHT22;383;48.766;9.270;2023-06-01T09:59:39;26.60;45.60
802;DHT22;383;48.766;9.270;2023-06-01T10:02:11;26.60;46.70
802;DHT22;383;48.766;9.270;2023-06-01T10:04:42;26.60;45.70
802;DHT22;383;48.766;9.270;2023-06-01T10:07:09;26.70;45.20
802;DHT22;383;48.766;9.270;2023-06-01T10:09:38;26.60;44.60
802;DHT22;383;48.766;9.270;2023-06-01T10:12:07;26.60;45.50
802;DHT22;383;48.766;9.270;2023-06-01T10:14:36;26.50;45.70
802;DHT22;383;48.766;9.270;2023-06-01T10:17:07;26.60;46.30
802;DHT22;383;48.766;9.270;2023-06-01T10:19:36;26.80;45.90
802;DHT22;383;48.766;9.270;2023-06-01T10:22:04;26.90;45.00
802;DHT22;383;48.766;9.270;2023-06-01T10:24:32;27.00;44.20
802;DHT22;383;48.766;9.270;2023-06-01T10:27:04;26.90;44.60
802;DHT22;383;48.766;9.270;2023-06-01T10:29:34;26.80;44.70
802;DHT22;383;48.766;9.270;2023-06-01T10:32:01;26.90;43.80
802;DHT22;383;48.766;9.270;2023-06-01T10:37:16;27.20;43.50
802;DHT22;383;48.766;9.270;2023-06-01T10:39:43;27.20;44.20
802;DHT22;383;48.766;9.270;2023-06-01T10:42:36;27.30;43.30
802;DHT22;383;48.766;9.270;2023-06-01T10:45:07;27.30;43.80
802;DHT22;383;48.766;9.270;2023-06-01T10:47:49;27.40;42.80
802;DHT22;383;48.766;9.270;2023-06-01T10:50:18;27.50;44.10
802;DHT22;383;48.766;9.270;2023-06-01T10:52:45;27.50;43.00
802;DHT22;383;48.766;9.270;2023-06-01T10:55:23;27.50;43.60
802;DHT22;383;48.766;9.270;2023-06-01T10:57:50;27.60;43.60
802;DHT22;383;48.766;9.270;2023-06-01T11:00:19;27.60;43.80
802;DHT22;383;48.766;9.270;2023-06-01T11:02:56;27.70;42.70
802;DHT22;383;48.766;9.270;2023-06-01T11:05:40;27.80;44.80
802;DHT22;383;48.766;9.270;2023-06-01T11:08:49;28.10;42.60
802;DHT22;383;48.766;9.270;2023-06-01T11:10:57;28.20;43.00
802;DHT22;383;48.766;9.270;2023-06-01T11:13:26;28.10;41.50
802;DHT22;383;48.766;9.270;2023-06-01T11:16:29;28.10;42.00
802;DHT22;383;48.766;9.270;2023-06-01T11:18:59;28.10;41.90
802;DHT22;383;48.766;9.270;2023-06-01T11:21:27;28.10;42.70
802;DHT22;383;48.766;9.270;2023-06-01T11:23:56;28.20;42.50
802;DHT22;383;48.766;9.270;2023-06-01T11:26:29;28.20;43.00
802;DHT22;383;48.766;9.270;2023-06-01T11:29:07;28.30;41.50
802;DHT22;383;48.766;9.270;2023-06-01T11:31:38;28.40;42.00
802;DHT22;383;48.766;9.270;2023-06-01T11:34:06;28.40;41.60
802;DHT22;383;48.766;9.270;2023-06-01T11:36:38;28.40;41.00
802;DHT22;383;48.766;9.270;2023-06-01T11:39:05;28.30;42.00
802;DHT22;383;48.766;9.270;2023-06-01T11:41:34;28.40;42.20
802;DHT22;383;48.766;9.270;2023-06-01T11:44:02;28.30;41.20
802;DHT22;383;48.766;9.270;2023-06-01T11:46:29;28.40;41.40
802;DHT22;383;48.766;9.270;2023-06-01T11:49:01;28.40;41.50
802;DHT22;383;48.766;9.270;2023-06-01T11:51:30;28.50;41.70
802;DHT22;383;48.766;9.270;2023-06-01T11:53:59;28.50;40.90
802;DHT22;383;48.766;9.270;2023-06-01T11:56:30;28.40;41.50
802;DHT22;383;48.766;9.270;2023-06-01T11:58:58;28.60;41.00
802;DHT22;383;48.766;9.270;2023-06-01T12:01:26;28.70;41.10
802;DHT22;383;48.766;9.270;2023-06-01T12:03:53;28.80;40.60
802;DHT22;383;48.766;9.270;2023-06-01T12:06:26;28.90;40.60
802;DHT22;383;48.766;9.270;2023-06-01T12:08:54;28.90;39.70
802;DHT22;383;48.766;9.270;2023-06-01T12:11:24;28.80;40.60
802;DHT22;383;48.766;9.270;2023-06-01T12:13:53;28.80;41.00
802;DHT22;383;48.766;9.270;2023-06-01T12:16:20;29.00;40.20
802;DHT22;383;48.766;9.270;2023-06-01T12:18:47;29.10;39.70
802;DHT22;383;48.766;9.270;2023-06-01T12:21:14;29.20;40.90
802;DHT22;383;48.766;9.270;2023-06-01T12:23:50;29.40;40.20
802;DHT22;383;48.766;9.270;2023-06-01T12:26:17;29.40;37.90
802;DHT22;383;48.766;9.270;2023-06-01T12:28:48;29.40;38.40
802;DHT22;383;48.766;9.270;2023-06-01T12:31:16;29.30;39.10
802;DHT22;383;48.766;9.270;2023-06-01T12:33:44;29.20;39.50
802;DHT22;383;48.766;9.270;2023-06-01T12:36:28;29.20;39.60
802;DHT22;383;48.766;9.270;2023-06-01T12:38:58;29.40;38.60
802;DHT22;383;48.766;9.270;2023-06-01T12:41:26;29.40;39.90
802;DHT22;383;48.766;9.270;2023-06-01T12:43:54;29.60;38.30
802;DHT22;383;48.766;9.270;2023-06-01T12:46:22;29.70;38.30
802;DHT22;383;48.766;9.270;2023-06-01T12:48:50;29.60;37.90
802;DHT22;383;48.766;9.270;2023-06-01T12:51:16;29.60;38.30
802;DHT22;383;48.766;9.270;2023-06-01T12:53:43;29.70;37.90
802;DHT22;383;48.766;9.270;2023-06-01T12:56:11;29.80;38.30
802;DHT22;383;48.766;9.270;2023-06-01T12:58:38;29.80;38.10
802;DHT22;383;48.766;9.270;2023-06-01T13:01:05;29.70;38.60
802;DHT22;383;48.766;9.270;2023-06-01T13:03:32;29.90;39.00
802;DHT22;383;48.766;9.270;2023-06-01T13:05:59;30.20;38.10
802;DHT22;383;48.766;9.270;2023-06-01T13:08:26;30.10;38.60
802;DHT22;383;48.766;9.270;2023-06-01T13:10:53;30.20;38.40
802;DHT22;383;48.766;9.270;2023-06-01T13:13:21;30.30;37.60
802;DHT22;383;48.766;9.270;2023-06-01T13:15:49;30.30;38.00
802;DHT22;383;48.766;9.270;2023-06-01T13:18:16;30.20;38.60
802;DHT22;383;48.766;9.270;2023-06-01T13:20:43;30.20;38.00
802;DHT22;383;48.766;9.270;2023-06-01T13:23:12;30.40;38.50
802;DHT22;383;48.766;9.270;2023-06-01T13:25:40;30.50;37.40
802;DHT22;383;48.766;9.270;2023-06-01T13:28:07;30.50;38.00
802;DHT22;383;48.766;9.270;2023-06-01T13:30:35;30.70;36.90
802;DHT22;383;48.766;9.270;2023-06-01T13:33:04;30.70;37.40
802;DHT22;383;48.766;9.270;2023-06-01T13:35:31;30.90;36.50
802;DHT22;383;48.766;9.270;2023-06-01T13:37:58;31.00;37.10
802;DHT22;383;48.766;9.270;2023-06-01T13:40:25;31.20;37.40
802;DHT22;383;48.766;9.270;2023-06-01T13:42:53;31.30;35.90
802;DHT22;383;48.766;9.270;2023-06-01T13:45:20;31.50;35.50
802;DHT22;383;48.766;9.270;2023-06-01T13:47:49;31.50;35.30
802;DHT22;383;48.766;9.270;2023-06-01T13:50:17;31.50;35.80
802;DHT22;383;48.766;9.270;2023-06-01T13:52:44;31.60;34.80
802;DHT22;383;48.766;9.270;2023-06-01T13:55:11;31.50;34.80
802;DHT22;383;48.766;9.270;2023-06-01T13:57:40;31.60;34.90
802;DHT22;383;48.766;9.270;2023-06-01T14:00:07;31.70;34.80
802;DHT22;383;48.766;9.270;2023-06-01T14:02:37;31.90;34.90
802;DHT22;383;48.766;9.270;2023-06-01T14:05:06;32.00;35.20
802;DHT22;383;48.766;9.270;2023-06-01T14:07:36;32.20;34.30
802;DHT22;383;48.766;9.270;2023-06-01T14:10:03;32.30;33.90
802;DHT22;383;48.766;9.270;2023-06-01T14:12:29;32.20;33.30
802;DHT22;383;48.766;9.270;2023-06-01T14:14:56;32.10;34.70
802;DHT22;383;48.766;9.270;2023-06-01T14:17:25;32.30;34.50
802;DHT22;383;48.766;9.270;2023-06-01T14:19:51;32.50;33.80
802;DHT22;383;48.766;9.270;2023-06-01T14:22:20;32.60;32.40
802;DHT22;383;48.766;9.270;2023-06-01T14:24:46;32.60;32.80
802;DHT22;383;48.766;9.270;2023-06-01T14:27:13;32.40;32.40
802;DHT22;383;48.766;9.270;2023-06-01T14:29:40;32.40;32.60
802;DHT22;383;48.766;9.270;2023-06-01T14:32:08;32.40;33.20
802;DHT22;383;48.766;9.270;2023-06-01T14:34:34;32.20;33.10
802;DHT22;383;48.766;9.270;2023-06-01T14:37:01;32.20;34.40
802;DHT22;383;48.766;9.270;2023-06-01T14:39:31;32.10;33.40
802;DHT22;383;48.766;9.270;2023-06-01T14:41:57;32.10;34.40
802;DHT22;383;48.766;9.270;2023-06-01T14:44:24;32.20;33.10
802;DHT22;383;48.766;9.270;2023-06-01T14:46:51;31.90;34.80
802;DHT22;383;48.766;9.270;2023-06-01T14:49:18;32.00;34.20
802;DHT22;383;48.766;9.270;2023-06-01T14:51:45;32.20;33.80
802;DHT22;383;48.766;9.270;2023-06-01T14:54:11;32.30;33.20
802;DHT22;383;48.766;9.270;2023-06-01T14:56:40;32.40;33.30
802;DHT22;383;48.766;9.270;2023-06-01T14:59:08;32.40;33.30
802;DHT22;383;48.766;9.270;2023-06-01T15:01:37;32.50;33.80
802;DHT22;383;48.766;9.270;2023-06-01T15:04:06;32.50;33.60
802;DHT22;383;48.766;9.270;2023-06-01T15:06:32;32.60;32.70
802;DHT22;383;48.766;9.270;2023-06-01T15:09:01;32.50;32.40
802;DHT22;383;48.766;9.270;2023-06-01T15:11:28;32.40;32.90
802;DHT22;383;48.766;9.270;2023-06-01T15:13:56;32.50;33.60
802;DHT22;383;48.766;9.270;2023-06-01T15:16:22;32.60;33.10
802;DHT22;383;48.766;9.270;2023-06-01T15:18:50;32.60;32.90
802;DHT22;383;48.766;9.270;2023-06-01T15:21:17;32.40;33.70
802;DHT22;383;48.766;9.270;2023-06-01T15:23:44;32.40;33.30
802;DHT22;383;48.766;9.270;2023-06-01T15:26:10;32.40;33.30
802;DHT22;383;48.766;9.270;2023-06-01T15:28:37;32.40;34.00
802;DHT22;383;48.766;9.270;2023-06-01T15:31:05;32.50;32.40
802;DHT22;383;48.766;9.270;2023-06-01T15:33:32;32.50;33.30
802;DHT22;383;48.766;9.270;2023-06-01T15:35:58;32.40;32.60
802;DHT22;383;48.766;9.270;2023-06-01T15:38:25;32.30;33.30
802;DHT22;383;48.766;9.270;2023-06-01T15:40:52;32.30;33.90
802;DHT22;383;48.766;9.270;2023-06-01T15:43:18;32.40;33.10
802;DHT22;383;48.766;9.270;2023-06-01T15:45:45;32.40;32.30
802;DHT22;383;48.766;9.270;2023-06-01T15:48:13;32.50;34.00
802;DHT22;383;48.766;9.270;2023-06-01T15:50:40;32.50;32.80
802;DHT22;383;48.766;9.270;2023-06-01T15:53:06;32.30;32.80
802;DHT22;383;48.766;9.270;2023-06-01T15:55:33;32.10;33.60
802;DHT22;383;48.766;9.270;2023-06-01T15:58:00;31.90;33.70
802;DHT22;383;48.766;9.270;2023-06-01T16:00:26;31.80;33.10
802;DHT22;383;48.766;9.270;2023-06-01T16:02:53;31.70;32.90
802;DHT22;383;48.766;9.270;2023-06-01T16:05:21;31.60;32.70
802;DHT22;383;48.766;9.270;2023-06-01T16:07:48;31.70;32.90
802;DHT22;383;48.766;9.270;2023-06-01T16:10:16;31.80;32.90
802;DHT22;383;48.766;9.270;2023-06-01T16:12:42;31.80;32.60
802;DHT22;383;48.766;9.270;2023-06-01T16:15:10;32.00;32.90
802;DHT22;383;48.766;9.270;2023-06-01T16:17:38;32.00;31.80
802;DHT22;383;48.766;9.270;2023-06-01T16:20:08;31.90;32.20
802;DHT22;383;48.766;9.270;2023-06-01T16:22:36;31.90;33.10
802;DHT22;383;48.766;9.270;2023-06-01T16:25:04;31.90;32.60
802;DHT22;383;48.766;9.270;2023-06-01T16:27:30;32.00;32.80
802;DHT22;383;48.766;9.270;2023-06-01T16:29:57;31.80;32.20
802;DHT22;383;48.766;9.270;2023-06-01T16:32:24;31.90;32.10
802;DHT22;383;48.766;9.270;2023-06-01T16:37:20;32.20;31.40
802;DHT22;383;48.766;9.270;2023-06-01T16:39:48;32.30;31.20
802;DHT22;383;48.766;9.270;2023-06-01T16:42:15;32.30;30.90
802;DHT22;383;48.766;9.270;2023-06-01T16:44:42;32.10;31.30
802;DHT22;383;48.766;9.270;2023-06-01T16:47:08;31.70;31.60